createdAt,value
2023-01-05T00:01:46.752Z,26.65
2023-01-05T00:04:15.069Z,38.13
2023-01-05T00:06:42.353Z,37.65
2023-01-05T00:09:12.368Z,31.45
2023-01-05T00:11:57.652Z,36.60
2023-01-05T00:14:46.135Z,33.58
2023-01-05T00:17:34.191Z,42.92
2023-01-05T00:20:19.490Z,41.78
2023-01-05T00:25:16.411Z,49.90
2023-01-05T00:27:44.689Z,31.92
2023-01-05T00:30:13.883Z,39.65
2023-01-05T00:32:42.116Z,42.13
2023-01-05T00:35:10.004Z,44.75
2023-01-05T00:37:39.962Z,40.53
2023-01-05T00:40:11.423Z,35.63
2023-01-05T00:42:38.514Z,38.78
2023-01-05T00:45:07.575Z,27.73
2023-01-05T00:47:34.375Z,29.83
2023-01-05T00:50:00.977Z,35.95
2023-01-05T00:52:27.818Z,34.50
2023-01-05T00:54:54.665Z,40.63
2023-01-05T00:57:21.599Z,39.95
2023-01-05T00:59:48.241Z,37.83
2023-01-05T01:02:14.997Z,70.10
2023-01-05T01:04:42.187Z,48.53
2023-01-05T01:07:08.891Z,47.47
2023-01-05T01:09:35.616Z,41.75
2023-01-05T01:12:02.488Z,51.25
2023-01-05T01:14:29.281Z,37.75
2023-01-05T01:16:56.350Z,40.47
2023-01-05T01:19:25.354Z,41.58
2023-01-05T01:21:52.226Z,48.60
2023-01-05T01:24:22.707Z,38.55
2023-01-05T01:26:49.522Z,30.65
2023-01-05T01:29:19.400Z,40.10
2023-01-05T01:31:50.650Z,26.33
2023-01-05T01:34:17.922Z,32.20
2023-01-05T01:36:45.373Z,26.48
2023-01-05T01:39:14.149Z,26.90
2023-01-05T01:41:44.612Z,29.65
2023-01-05T01:44:49.086Z,34.33
2023-01-05T01:49:49.196Z,32.30
2023-01-05T01:52:16.459Z,28.45
2023-01-05T01:54:43.252Z,24.30
2023-01-05T01:57:11.709Z,35.97
2023-01-05T01:59:38.659Z,36.80
2023-01-05T02:02:07.841Z,34.13
2023-01-05T02:04:36.804Z,28.15
2023-01-05T02:07:04.311Z,33.72
2023-01-05T02:09:31.900Z,29.13
2023-01-05T02:12:02.890Z,39.08
2023-01-05T02:14:51.703Z,42.22
2023-01-05T02:17:39.462Z,30.92
2023-01-05T02:20:25.593Z,36.40
2023-01-05T02:23:15.324Z,37.80
2023-01-05T02:26:20.039Z,27.95
2023-01-05T02:29:08.320Z,38.03
2023-01-05T02:31:48.719Z,37.58
2023-01-05T02:34:57.846Z,32.13
2023-01-05T02:37:42.103Z,29.58
2023-01-05T02:40:29.315Z,28.02
2023-01-05T02:43:01.540Z,26.00
2023-01-05T02:45:28.293Z,19.65
2023-01-05T02:47:59.852Z,32.72
2023-01-05T02:50:38.219Z,30.95
2023-01-05T02:53:30.024Z,29.98
2023-01-05T02:56:03.156Z,25.85
2023-01-05T02:58:39.298Z,34.53
2023-01-05T03:01:14.524Z,33.47
2023-01-05T03:04:03.210Z,28.42
2023-01-05T03:06:47.048Z,26.90
2023-01-05T03:09:19.864Z,26.67
2023-01-05T03:12:25.860Z,29.73
2023-01-05T03:15:21.422Z,28.90
2023-01-05T03:17:52.048Z,33.90
2023-01-05T03:20:26.180Z,40.38
2023-01-05T03:23:16.346Z,39.75
2023-01-05T03:26:02.097Z,31.70
2023-01-05T03:28:57.737Z,31.42
2023-01-05T03:32:02.687Z,26.63
2023-01-05T03:35:15.719Z,26.38
2023-01-05T03:38:04.619Z,36.70
2023-01-05T03:40:35.002Z,17.23
2023-01-05T03:43:03.372Z,37.13
2023-01-05T03:45:43.327Z,32.22
2023-01-05T03:48:15.747Z,29.92
2023-01-05T03:50:42.381Z,37.70
2023-01-05T03:53:13.231Z,27.67
2023-01-05T03:55:41.431Z,37.80
2023-01-05T03:58:08.277Z,42.25
2023-01-05T04:00:36.342Z,35.70
2023-01-05T04:03:10.495Z,35.85
2023-01-05T04:05:38.395Z,26.75
2023-01-05T04:08:05.759Z,37.80
2023-01-05T04:10:35.256Z,26.85
2023-01-05T04:13:02.119Z,30.05
2023-01-05T04:15:29.044Z,35.40
2023-01-05T04:17:56.000Z,40.78
2023-01-05T04:20:22.665Z,41.75
2023-01-05T04:22:50.056Z,38.45
2023-01-05T04:25:19.319Z,28.15
2023-01-05T04:27:47.061Z,35.50
2023-01-05T04:30:15.163Z,44.47
2023-01-05T04:32:42.382Z,37.78
2023-01-05T04:35:13.018Z,37.33
2023-01-05T04:37:41.473Z,39.28
2023-01-05T04:40:09.646Z,28.65
2023-01-05T04:42:44.433Z,46.70
2023-01-05T04:45:11.333Z,37.53
2023-01-05T04:47:38.256Z,27.63
2023-01-05T04:50:05.967Z,38.22
2023-01-05T04:52:32.923Z,41.50
2023-01-05T04:54:59.807Z,39.20
2023-01-05T04:57:27.688Z,36.88
2023-01-05T04:59:54.316Z,41.28
2023-01-05T05:02:22.443Z,48.25
2023-01-05T05:04:50.456Z,37.05
2023-01-05T05:07:18.472Z,34.33
2023-01-05T05:09:45.242Z,38.95
2023-01-05T05:12:13.313Z,40.60
2023-01-05T05:14:40.241Z,39.78
2023-01-05T05:17:07.307Z,36.30
2023-01-05T05:19:34.432Z,31.25
2023-01-05T05:22:01.809Z,28.95
2023-01-05T05:24:28.576Z,39.33
2023-01-05T05:26:57.280Z,38.88
2023-01-05T05:29:24.640Z,39.05
2023-01-05T05:31:52.181Z,42.75
2023-01-05T05:34:19.491Z,33.03
2023-01-05T05:36:46.068Z,46.58
2023-01-05T05:39:14.176Z,31.85
2023-01-05T05:41:41.073Z,49.00
2023-01-05T05:44:08.800Z,32.13
2023-01-05T05:46:35.469Z,45.22
2023-01-05T05:49:02.125Z,39.83
2023-01-05T05:51:28.819Z,46.15
2023-01-05T05:53:55.514Z,33.63
2023-01-05T05:56:23.302Z,46.42
2023-01-05T05:58:49.915Z,44.28
2023-01-05T06:01:16.588Z,52.80
2023-01-05T06:03:43.345Z,43.58
2023-01-05T06:06:10.112Z,42.80
2023-01-05T06:08:36.751Z,59.25
2023-01-05T06:11:04.493Z,42.45
2023-01-05T06:13:31.231Z,47.00
2023-01-05T06:15:57.990Z,41.97
2023-01-05T06:18:24.681Z,65.70
2023-01-05T06:20:56.306Z,55.95
2023-01-05T06:23:26.224Z,52.75
2023-01-05T06:25:52.853Z,58.30
2023-01-05T06:28:20.517Z,61.95
2023-01-05T06:30:47.524Z,57.17
2023-01-05T06:33:14.127Z,61.78
2023-01-05T06:35:40.817Z,62.03
2023-01-05T06:38:08.085Z,54.58
2023-01-05T06:40:34.950Z,56.28
2023-01-05T06:43:01.556Z,45.80
2023-01-05T06:45:28.265Z,53.40
2023-01-05T06:47:55.027Z,37.05
2023-01-05T06:50:21.860Z,37.90
2023-01-05T06:52:48.523Z,50.75
2023-01-05T06:55:15.218Z,51.75
2023-01-05T06:57:41.882Z,65.38
2023-01-05T07:00:11.680Z,47.83
2023-01-05T07:02:38.623Z,47.40
2023-01-05T07:05:05.816Z,47.75
2023-01-05T07:07:32.611Z,55.65
2023-01-05T07:09:59.551Z,63.58
2023-01-05T07:12:26.301Z,53.63
2023-01-05T07:14:57.288Z,51.90
2023-01-05T07:17:24.783Z,61.85
2023-01-05T07:19:51.452Z,50.13
2023-01-05T07:22:18.182Z,57.08
2023-01-05T07:24:44.759Z,72.10
2023-01-05T07:27:11.374Z,62.70
2023-01-05T07:29:38.031Z,57.58
2023-01-05T07:32:05.140Z,60.85
2023-01-05T07:34:31.830Z,50.55
2023-01-05T07:36:58.572Z,64.78
2023-01-05T07:39:25.214Z,66.25
2023-01-05T07:41:51.829Z,64.60
2023-01-05T07:44:18.456Z,65.38
2023-01-05T07:46:45.150Z,71.72
2023-01-05T07:49:11.831Z,57.40
2023-01-05T07:51:38.598Z,58.45
2023-01-05T07:54:05.191Z,66.50
2023-01-05T07:56:31.804Z,71.50
2023-01-05T07:58:59.186Z,59.50
2023-01-05T08:01:25.990Z,68.50
2023-01-05T08:03:52.964Z,67.93
2023-01-05T08:06:20.436Z,70.05
2023-01-05T08:08:47.961Z,69.53
2023-01-05T08:11:17.463Z,46.85
2023-01-05T08:14:00.493Z,68.72
2023-01-05T08:16:31.494Z,62.55
2023-01-05T08:18:59.816Z,58.47
2023-01-05T08:21:26.707Z,70.55
2023-01-05T08:23:53.829Z,64.65
2023-01-05T08:26:23.417Z,61.75
2023-01-05T08:28:51.776Z,50.97
2023-01-05T08:31:26.340Z,58.80
2023-01-05T08:34:00.530Z,56.28
2023-01-05T08:36:27.672Z,65.40
2023-01-05T08:38:55.073Z,53.58
2023-01-05T08:41:24.178Z,53.05
2023-01-05T08:43:55.550Z,56.25
2023-01-05T08:46:24.807Z,51.05
2023-01-05T08:48:53.054Z,51.92
2023-01-05T08:51:19.965Z,48.88
2023-01-05T08:53:47.076Z,52.97
2023-01-05T08:56:14.251Z,54.50
2023-01-05T08:58:42.095Z,44.97
2023-01-05T09:01:10.720Z,58.55
2023-01-05T09:03:37.712Z,50.72
2023-01-05T09:06:09.328Z,47.25
2023-01-05T09:08:36.323Z,53.58
2023-01-05T09:11:08.049Z,51.35
2023-01-05T09:13:35.082Z,64.97
2023-01-05T09:16:24.828Z,52.30
2023-01-05T09:19:04.124Z,55.05
2023-01-05T09:21:30.796Z,65.82
2023-01-05T09:23:59.217Z,61.70
2023-01-05T09:26:25.913Z,65.40
2023-01-05T09:28:52.605Z,61.28
2023-01-05T09:31:21.489Z,65.93
2023-01-05T09:33:48.739Z,60.88
2023-01-05T09:36:17.220Z,57.15
2023-01-05T09:38:47.947Z,52.95
2023-01-05T09:41:34.805Z,68.65
2023-01-05T09:44:36.736Z,62.15
2023-01-05T09:47:18.402Z,61.78
2023-01-05T09:49:48.540Z,62.40
2023-01-05T09:52:15.640Z,50.38
2023-01-05T09:54:42.308Z,68.05
2023-01-05T09:57:21.867Z,69.97
2023-01-05T09:59:52.281Z,66.85
2023-01-05T10:02:26.782Z,67.35
2023-01-05T10:04:55.303Z,71.50
2023-01-05T10:07:34.290Z,56.58
2023-01-05T10:10:17.705Z,65.97
2023-01-05T10:13:05.447Z,62.95
2023-01-05T10:15:46.102Z,64.05
2023-01-05T10:18:17.700Z,56.15
2023-01-05T10:21:12.267Z,64.65
2023-01-05T10:23:50.771Z,52.20
2023-01-05T10:26:58.606Z,61.15
2023-01-05T10:32:05.776Z,43.38
2023-01-05T10:34:50.691Z,49.97
2023-01-05T10:37:45.336Z,44.28
2023-01-05T10:40:12.096Z,48.65
2023-01-05T10:43:01.246Z,42.20
2023-01-05T10:45:30.609Z,54.30
2023-01-05T10:47:58.989Z,54.10
2023-01-05T10:50:35.184Z,52.67
2023-01-05T10:53:08.927Z,53.58
2023-01-05T10:55:47.375Z,37.20
2023-01-05T10:58:29.007Z,50.75
2023-01-05T11:01:17.475Z,53.65
2023-01-05T11:04:25.121Z,57.20
2023-01-05T11:06:36.499Z,59.92
2023-01-05T11:09:22.639Z,56.75
2023-01-05T11:12:20.340Z,50.10
2023-01-05T11:14:59.101Z,46.25
2023-01-05T11:17:28.962Z,48.50
2023-01-05T11:19:58.162Z,51.25
2023-01-05T11:22:36.416Z,45.97
2023-01-05T11:25:27.772Z,47.75
2023-01-05T11:28:17.826Z,47.45
2023-01-05T11:31:00.547Z,40.60
2023-01-05T11:33:29.693Z,41.55
2023-01-05T11:35:57.988Z,42.78
2023-01-05T11:38:27.998Z,49.97
2023-01-05T11:40:56.849Z,46.53
2023-01-05T11:43:27.794Z,43.05
2023-01-05T11:46:00.590Z,41.17
2023-01-05T11:48:31.956Z,42.47
2023-01-05T11:50:59.224Z,49.45
2023-01-05T11:53:34.970Z,41.60
2023-01-05T11:56:07.729Z,43.05
2023-01-05T11:58:46.157Z,53.30
2023-01-05T12:01:41.372Z,44.85
2023-01-05T12:04:14.219Z,50.00
2023-01-05T12:07:17.737Z,40.17
2023-01-05T12:09:53.977Z,46.53
2023-01-05T12:12:30.870Z,57.30
2023-01-05T12:15:15.959Z,44.53
2023-01-05T12:18:07.061Z,38.80
2023-01-05T12:20:56.723Z,44.83
2023-01-05T12:23:56.126Z,33.42
2023-01-05T12:26:26.010Z,41.70
2023-01-05T12:35:42.124Z,33.20
2023-01-05T12:38:20.526Z,41.53
2023-01-05T12:41:10.737Z,23.80
2023-01-05T12:44:15.353Z,40.58
2023-01-05T12:46:58.047Z,30.20
2023-01-05T12:49:32.211Z,45.33
2023-01-05T12:52:21.763Z,38.97
2023-01-05T12:55:14.746Z,47.95
2023-01-05T12:57:45.473Z,33.10
2023-01-05T13:00:18.374Z,53.83
2023-01-05T13:02:56.482Z,40.15
2023-01-05T13:05:45.998Z,36.95
2023-01-05T13:08:34.800Z,38.45
2023-01-05T13:11:05.409Z,45.95
2023-01-05T13:13:37.318Z,49.38
2023-01-05T13:16:19.173Z,35.45
2023-01-05T13:19:12.681Z,40.75
2023-01-05T13:21:42.556Z,38.25
2023-01-05T13:24:17.740Z,45.92
2023-01-05T13:29:25.081Z,33.47
2023-01-05T13:32:01.580Z,34.45
2023-01-05T13:34:41.800Z,46.83
2023-01-05T13:37:19.716Z,44.42
2023-01-05T13:40:28.751Z,41.97
2023-01-05T13:43:10.553Z,45.88
2023-01-05T13:46:16.120Z,36.17
2023-01-05T13:49:05.544Z,37.53
2023-01-05T13:51:53.835Z,40.08
2023-01-05T13:54:43.390Z,33.42
2023-01-05T13:57:27.487Z,35.55
2023-01-05T14:00:10.205Z,29.25
2023-01-05T14:02:43.795Z,48.20
2023-01-05T14:05:33.365Z,33.28
2023-01-05T14:08:04.487Z,43.10
2023-01-05T14:10:33.680Z,38.05
2023-01-05T14:13:02.034Z,41.63
2023-01-05T14:15:40.477Z,38.95
2023-01-05T14:18:11.794Z,56.70
2023-01-05T14:20:49.893Z,47.15
2023-01-05T14:23:25.401Z,41.80
2023-01-05T14:26:00.482Z,38.42
2023-01-05T14:28:30.438Z,27.70
2023-01-05T14:31:16.146Z,41.38
2023-01-05T14:33:49.613Z,39.00
2023-01-05T14:36:37.463Z,35.03
2023-01-05T14:39:07.851Z,44.13
2023-01-05T14:41:34.818Z,41.15
2023-01-05T14:44:16.666Z,35.35
2023-01-05T14:46:55.442Z,38.67
2023-01-05T14:49:36.200Z,36.13
2023-01-05T14:52:05.444Z,52.70
2023-01-05T14:55:05.764Z,42.50
2023-01-05T14:57:49.163Z,47.58
2023-01-05T15:00:29.995Z,38.63
2023-01-05T15:03:11.992Z,51.28
2023-01-05T15:05:44.812Z,35.88
2023-01-05T15:08:37.766Z,30.90
2023-01-05T15:11:32.583Z,43.45
2023-01-05T15:14:37.187Z,28.90
2023-01-05T15:17:47.968Z,40.28
2023-01-05T15:20:54.120Z,33.45
2023-01-05T15:26:44.005Z,32.38
2023-01-05T15:29:19.009Z,36.28
2023-01-05T15:34:47.127Z,32.72
2023-01-05T15:37:34.230Z,37.75
2023-01-05T15:40:04.158Z,33.58
2023-01-05T15:42:41.439Z,42.72
2023-01-05T15:45:36.425Z,29.90
2023-01-05T15:48:11.072Z,47.22
2023-01-05T15:50:48.711Z,51.53
2023-01-05T15:53:32.865Z,38.63
2023-01-05T15:56:01.049Z,46.38
2023-01-05T15:58:30.423Z,48.33
2023-01-05T16:01:11.409Z,38.90
2023-01-05T16:03:40.389Z,51.08
2023-01-05T16:06:14.103Z,38.95
2023-01-05T16:08:43.953Z,44.55
2023-01-05T16:11:14.191Z,44.65
2023-01-05T16:13:57.439Z,45.78
2023-01-05T16:19:20.896Z,51.80
2023-01-05T16:22:09.102Z,61.30
2023-01-05T16:24:43.007Z,46.13
2023-01-05T16:27:12.655Z,48.53
2023-01-05T16:29:45.723Z,47.22
2023-01-05T16:32:37.282Z,46.38
2023-01-05T16:35:41.465Z,53.90
2023-01-05T16:38:08.446Z,54.83
2023-01-05T16:40:50.229Z,51.53
2023-01-05T16:43:34.511Z,48.80
2023-01-05T16:46:28.083Z,47.20
2023-01-05T16:49:17.250Z,53.70
2023-01-05T16:51:43.933Z,47.50
2023-01-05T16:54:40.455Z,51.63
2023-01-05T16:57:30.868Z,47.83
2023-01-05T16:59:57.998Z,44.53
2023-01-05T17:02:46.079Z,49.63
2023-01-05T17:05:20.249Z,43.63
2023-01-05T17:07:49.489Z,59.95
2023-01-05T17:10:20.166Z,61.67
2023-01-05T17:12:55.996Z,65.10
2023-01-05T17:15:25.479Z,51.58
2023-01-05T17:17:55.158Z,47.92
2023-01-05T17:20:23.660Z,56.55
2023-01-05T17:22:50.763Z,59.85
2023-01-05T17:25:17.616Z,60.30
2023-01-05T17:27:44.190Z,44.83
2023-01-05T17:30:22.365Z,57.50
2023-01-05T17:32:49.117Z,48.30
2023-01-05T17:35:18.500Z,50.63
2023-01-05T17:37:46.730Z,52.90
2023-01-05T17:40:18.552Z,61.78
2023-01-05T17:42:45.968Z,59.85
2023-01-05T17:45:18.543Z,60.47
2023-01-05T17:47:45.448Z,55.28
2023-01-05T17:50:18.977Z,53.67
2023-01-05T17:52:45.730Z,51.75
2023-01-05T17:55:13.050Z,52.90
2023-01-05T17:57:40.369Z,50.03
2023-01-05T18:00:10.848Z,51.47
2023-01-05T18:02:37.876Z,56.97
2023-01-05T18:05:05.012Z,54.55
2023-01-05T18:07:32.081Z,46.88
2023-01-05T18:09:59.699Z,48.05
2023-01-05T18:12:27.272Z,44.95
2023-01-05T18:14:54.511Z,47.97
2023-01-05T18:17:21.284Z,55.22
2023-01-05T18:19:47.943Z,44.40
2023-01-05T18:22:14.961Z,48.17
2023-01-05T18:24:42.417Z,40.67
2023-01-05T18:27:10.107Z,52.97
2023-01-05T18:29:37.742Z,50.50
2023-01-05T18:32:05.614Z,47.10
2023-01-05T18:34:32.739Z,40.72
2023-01-05T18:37:06.378Z,42.78
2023-01-05T18:39:37.527Z,38.38
2023-01-05T18:42:04.275Z,39.28
2023-01-05T18:44:30.946Z,50.03
2023-01-05T18:46:57.540Z,46.83
2023-01-05T18:49:24.166Z,38.80
2023-01-05T18:51:52.676Z,46.90
2023-01-05T18:54:20.044Z,34.67
2023-01-05T18:56:47.068Z,49.92
2023-01-05T18:59:14.199Z,41.25
2023-01-05T19:01:42.868Z,40.03
2023-01-05T19:04:14.997Z,47.53
2023-01-05T19:06:42.234Z,49.20
2023-01-05T19:09:11.095Z,42.17
2023-01-05T19:11:39.359Z,36.47
2023-01-05T19:14:06.314Z,42.72
2023-01-05T19:16:35.012Z,34.22
2023-01-05T19:19:06.392Z,36.47
2023-01-05T19:21:34.918Z,37.05
2023-01-05T19:24:02.769Z,32.08
2023-01-05T19:26:32.182Z,29.80
2023-01-05T19:29:00.629Z,35.22
2023-01-05T19:31:28.931Z,32.15
2023-01-05T19:33:58.768Z,41.60
2023-01-05T19:36:32.275Z,39.53
2023-01-05T19:39:10.840Z,38.15
2023-01-05T19:41:39.239Z,39.70
2023-01-05T19:44:06.142Z,38.88
2023-01-05T19:46:35.241Z,30.25
2023-01-05T19:49:02.550Z,30.45
2023-01-05T19:51:30.299Z,32.03
2023-01-05T19:53:59.509Z,88.68
2023-01-05T19:56:29.678Z,46.38
2023-01-05T19:58:59.048Z,37.53
2023-01-05T20:01:27.449Z,38.28
2023-01-05T20:03:55.371Z,48.92
2023-01-05T20:06:24.540Z,51.72
2023-01-05T20:08:52.570Z,39.67
2023-01-05T20:11:39.216Z,41.28
2023-01-05T20:14:10.502Z,40.30
2023-01-05T20:16:37.950Z,47.97
2023-01-05T20:19:05.323Z,62.05
2023-01-05T20:21:35.165Z,60.50
2023-01-05T20:24:06.356Z,77.28
2023-01-05T20:26:33.218Z,50.85
2023-01-05T20:29:00.646Z,55.97
2023-01-05T20:31:31.340Z,49.75
2023-01-05T20:34:00.658Z,54.63
2023-01-05T20:36:28.575Z,56.15
2023-01-05T20:38:56.419Z,55.17
2023-01-05T20:41:28.399Z,49.53
2023-01-05T20:43:55.838Z,47.00
2023-01-05T20:46:26.683Z,52.97
2023-01-05T20:48:54.248Z,60.45
2023-01-05T20:51:21.693Z,51.03
2023-01-05T20:53:49.893Z,49.88
2023-01-05T20:56:19.979Z,57.63
2023-01-05T20:58:49.183Z,52.47
2023-01-05T21:01:16.289Z,60.75
2023-01-05T21:03:44.734Z,58.65
2023-01-05T21:06:15.053Z,51.58
2023-01-05T21:08:43.824Z,69.07
2023-01-05T21:11:15.757Z,54.20
2023-01-05T21:16:22.887Z,59.03
2023-01-05T21:18:50.188Z,52.20
2023-01-05T21:21:19.548Z,62.03
2023-01-05T21:23:48.676Z,64.55
2023-01-05T21:26:16.575Z,46.38
2023-01-05T21:28:44.524Z,63.85
2023-01-05T21:31:17.148Z,59.80
2023-01-05T21:33:44.347Z,71.15
2023-01-05T21:36:19.937Z,56.00
2023-01-05T21:39:03.835Z,62.90
2023-01-05T21:41:50.210Z,56.15
2023-01-05T21:44:17.729Z,51.10
2023-01-05T21:46:44.822Z,45.30
2023-01-05T21:49:12.589Z,55.53
2023-01-05T21:51:58.500Z,110.43
2023-01-05T21:54:43.971Z,71.07
2023-01-05T21:57:10.727Z,69.80
2023-01-05T21:59:37.568Z,63.72
2023-01-05T22:02:04.284Z,65.85
2023-01-05T22:04:30.974Z,66.47
2023-01-05T22:06:57.633Z,60.83
2023-01-05T22:09:24.509Z,45.35
2023-01-05T22:11:51.332Z,55.35
2023-01-05T22:14:18.199Z,55.25
2023-01-05T22:16:44.899Z,62.65
2023-01-05T22:19:11.679Z,41.90
2023-01-05T22:21:38.318Z,51.95
2023-01-05T22:24:05.619Z,55.42
2023-01-05T22:26:32.369Z,38.53
2023-01-05T22:28:59.007Z,42.47
2023-01-05T22:31:28.028Z,34.60
2023-01-05T22:33:57.639Z,53.17
2023-01-05T22:36:25.440Z,46.25
2023-01-05T22:38:53.479Z,46.55
2023-01-05T22:41:23.302Z,34.28
2023-01-05T22:43:50.713Z,39.30
2023-01-05T22:46:20.161Z,33.60
2023-01-05T22:48:49.003Z,34.25
2023-01-05T22:51:17.150Z,28.08
2023-01-05T22:53:44.467Z,35.95
2023-01-05T22:56:12.852Z,22.17
2023-01-05T22:58:40.230Z,24.75
2023-01-05T23:01:12.365Z,29.80
2023-01-05T23:03:39.880Z,22.92
2023-01-05T23:06:07.382Z,23.80
2023-01-05T23:08:35.883Z,30.33
2023-01-05T23:11:05.597Z,25.48
2023-01-05T23:13:32.219Z,29.50
2023-01-05T23:15:58.861Z,19.20
2023-01-05T23:18:25.748Z,24.00
2023-01-05T23:21:00.529Z,28.25
2023-01-05T23:23:30.533Z,27.02
2023-01-05T23:25:57.491Z,17.85
2023-01-05T23:28:26.029Z,15.57
2023-01-05T23:30:54.693Z,26.25
2023-01-05T23:33:24.435Z,12.10
2023-01-05T23:35:52.387Z,14.95
2023-01-05T23:38:20.126Z,14.93
2023-01-05T23:40:49.457Z,15.32
2023-01-05T23:43:18.829Z,10.73
2023-01-05T23:45:45.873Z,10.15
2023-01-05T23:48:13.287Z,15.35
2023-01-05T23:50:44.667Z,12.10
2023-01-05T23:53:12.120Z,10.25
2023-01-05T23:55:40.843Z,5.30
2023-01-05T23:58:08.325Z,7.38
